Terminal Aerodrome Forecast
Issued by NWS Cleveland, OH

Home | Current Version | Previous Version | Text Only | Print | Product List | Glossary On
Versions: 1 2 3 4 5 6 7 8 9 10 11 12 13
650
FTUS41 KCLE 201740
TAFYNG
TAF
KYNG 201740Z 2018/2118 10007KT P6SM BKN250
     FM210100 12007KT P6SM OVC250
     FM211100 16010KT P6SM OVC100
     FM211600 18012G20KT P6SM OVC070=

USA.gov is the U.S. government's official web portal to all federal, state and local government web resources and services.